Time;durP1;ratioP1;P1;durP2;ratioP2;P2;SDS_P1;SDS_P2;PMS_P1;PMS_P2;Temp;Humidity;BMP_temperature;BMP_pressure;BME280_temperature;BME280_humidity;BME280_pressure;Samples;Min_cycle;Max_cycle;Signal;HPM_P1;HPM_P2
2022/06/09 00:01:22;;;;;;;0.20;0.20;;;16.20;99.90;;;;;;5034324;28;20185;-79
2022/06/09 00:03:56;;;;;;;0.30;0.30;;;16.20;99.90;;;;;;5035474;28;20178;-79
2022/06/09 00:06:26;;;;;;;1.67;1.57;;;16.20;99.90;;;;;;5033296;28;20213;-80
2022/06/09 00:08:53;;;;;;;0.20;0.20;;;16.20;99.90;;;;;;5034739;28;20184;-79
2022/06/09 00:11:23;;;;;;;0.20;0.20;;;16.20;99.90;;;;;;5034208;28;20312;-79
2022/06/09 00:13:49;;;;;;;0.10;0.10;;;16.10;99.90;;;;;;5033860;28;20182;-79
2022/06/09 00:16:15;;;;;;;0.20;0.20;;;16.00;99.90;;;;;;5035832;28;20213;-79
2022/06/09 00:18:41;;;;;;;0.10;0.10;;;15.90;99.90;;;;;;5035543;28;20185;-79
2022/06/09 00:21:07;;;;;;;0.20;0.20;;;15.90;99.90;;;;;;5035608;28;20724;-79
2022/06/09 00:23:33;;;;;;;0.13;0.13;;;15.80;99.90;;;;;;5035556;28;20182;-79
2022/06/09 00:25:59;;;;;;;0.67;0.30;;;15.80;99.90;;;;;;5033244;28;20562;-79
2022/06/09 00:28:24;;;;;;;0.10;0.10;;;15.80;99.90;;;;;;5033930;28;20182;-79
2022/06/09 00:30:50;;;;;;;0.10;0.10;;;15.90;99.90;;;;;;5034040;28;20263;-79
2022/06/09 00:33:16;;;;;;;0.10;0.10;;;15.80;99.90;;;;;;5032709;28;20206;-79
2022/06/09 00:35:41;;;;;;;0.13;0.13;;;15.80;99.90;;;;;;5035842;28;20202;-79
2022/06/09 00:38:07;;;;;;;0.30;0.30;;;15.80;99.90;;;;;;5033151;28;20715;-79
2022/06/09 00:40:33;;;;;;;0.10;0.10;;;15.90;99.90;;;;;;5033391;28;20182;-79
2022/06/09 00:43:01;;;;;;;0.13;0.13;;;15.80;99.90;;;;;;5033331;28;20229;-79
2022/06/09 00:45:38;;;;;;;0.30;0.20;;;15.70;99.90;;;;;;5033973;28;20943;-79
2022/06/09 00:48:21;;;;;;;0.10;0.10;;;15.70;99.90;;;;;;5034851;28;20193;-79
2022/06/09 00:50:55;;;;;;;0.40;0.40;;;15.70;99.90;;;;;;5032844;28;20221;-79
2022/06/09 00:53:26;;;;;;;0.20;0.20;;;15.60;99.90;;;;;;5032101;28;20216;-79
2022/06/09 00:55:53;;;;;;;0.27;0.27;;;15.50;99.90;;;;;;5032491;28;20203;-79
2022/06/09 00:58:21;;;;;;;0.20;0.20;;;15.50;99.90;;;;;;5032271;28;20671;-79
2022/06/09 01:00:56;;;;;;;0.10;0.10;;;15.40;99.90;;;;;;5032962;28;20697;-78
2022/06/09 01:03:28;;;;;;;0.10;0.10;;;15.40;99.90;;;;;;5033610;28;20197;-79
2022/06/09 01:06:08;;;;;;;0.30;0.30;;;15.20;99.90;;;;;;5031406;28;20306;-79
2022/06/09 01:08:40;;;;;;;0.27;0.27;;;15.10;99.90;;;;;;5032806;28;20180;-79
2022/06/09 01:11:05;;;;;;;0.67;0.50;;;15.20;99.90;;;;;;5033243;28;20189;-79
2022/06/09 01:13:32;;;;;;;0.10;0.10;;;15.10;99.90;;;;;;5032594;28;20524;-80
2022/06/09 01:16:22;;;;;;;0.10;0.10;;;15.00;99.90;;;;;;5032242;28;20266;-79
2022/06/09 01:19:00;;;;;;;0.47;0.47;;;15.00;99.90;;;;;;5021849;28;20199;-79
2022/06/09 01:21:34;;;;;;;0.20;0.20;;;15.00;99.90;;;;;;5032496;28;20188;-79
2022/06/09 01:24:18;;;;;;;0.30;0.13;;;15.00;99.90;;;;;;5031977;28;20321;-79
2022/06/09 01:26:57;;;;;;;0.30;0.30;;;15.00;99.90;;;;;;5032221;28;20218;-79
2022/06/09 01:29:51;;;;;;;0.23;0.23;;;14.90;99.90;;;;;;5033986;28;20269;-79
2022/06/09 01:32:32;;;;;;;0.30;0.20;;;14.80;99.90;;;;;;5017478;28;20223;-79
2022/06/09 01:35:14;;;;;;;0.10;0.10;;;14.70;99.90;;;;;;5033423;28;20279;-79
2022/06/09 01:37:45;;;;;;;0.20;0.20;;;14.60;99.90;;;;;;5033003;28;20259;-79
2022/06/09 01:40:13;;;;;;;0.10;0.10;;;14.60;99.90;;;;;;5035194;28;20182;-79
2022/06/09 01:42:45;;;;;;;0.10;0.10;;;14.60;99.90;;;;;;5033656;28;20189;-79
2022/06/09 01:45:20;;;;;;;0.10;0.10;;;14.60;99.90;;;;;;5033332;28;20207;-79
2022/06/09 01:47:51;;;;;;;0.20;0.20;;;14.60;99.90;;;;;;5031862;28;20190;-79
2022/06/09 01:50:26;;;;;;;0.20;0.20;;;14.50;99.90;;;;;;5032680;28;20280;-79
2022/06/09 01:52:53;;;;;;;0.10;0.10;;;14.40;99.90;;;;;;5031848;28;20198;-79
2022/06/09 01:55:22;;;;;;;0.17;0.17;;;14.40;99.90;;;;;;5032032;28;20266;-79
2022/06/09 01:57:51;;;;;;;0.10;0.10;;;14.40;99.90;;;;;;5029657;28;20179;-79
2022/06/09 02:00:18;;;;;;;0.10;0.10;;;14.40;99.90;;;;;;5033301;28;20175;-79
2022/06/09 02:03:13;;;;;;;0.20;0.20;;;14.40;99.90;;;;;;5033442;28;21025;-79
2022/06/09 02:05:41;;;;;;;0.20;0.20;;;14.40;99.90;;;;;;5028149;28;20231;-79
2022/06/09 02:08:09;;;;;;;0.20;0.20;;;14.40;99.90;;;;;;5032841;28;20224;-79
2022/06/09 02:10:38;;;;;;;1.03;0.40;;;14.30;99.90;;;;;;5031195;28;20190;-79
2022/06/09 02:13:13;;;;;;;0.17;0.13;;;14.20;99.90;;;;;;5034410;28;20755;-79
2022/06/09 02:15:43;;;;;;;0.20;0.20;;;14.30;99.90;;;;;;5031109;28;20210;-80
2022/06/09 02:18:16;;;;;;;0.23;0.23;;;14.20;99.90;;;;;;5032368;28;20252;-79
2022/06/09 02:20:55;;;;;;;0.10;0.10;;;14.20;99.90;;;;;;5031617;28;20180;-79
2022/06/09 02:23:21;;;;;;;0.20;0.20;;;14.30;99.90;;;;;;5033142;28;20176;-79
2022/06/09 02:25:46;;;;;;;0.10;0.10;;;14.30;99.90;;;;;;5031346;28;20223;-79
2022/06/09 02:28:12;;;;;;;0.77;0.77;;;14.10;99.90;;;;;;5029529;28;20195;-79
2022/06/09 02:30:38;;;;;;;0.17;0.17;;;14.00;99.90;;;;;;5029988;28;20188;-80
2022/06/09 02:33:04;;;;;;;0.30;0.30;;;13.70;99.90;;;;;;5032982;28;20578;-79
2022/06/09 02:35:29;;;;;;;0.23;0.23;;;13.70;99.90;;;;;;5032601;28;20229;-79
2022/06/09 02:37:55;;;;;;;0.20;0.20;;;13.50;99.90;;;;;;5033381;28;20185;-79
2022/06/09 02:40:21;;;;;;;0.13;0.13;;;13.50;99.90;;;;;;5031423;28;20205;-79
2022/06/09 02:42:46;;;;;;;0.10;0.10;;;13.50;99.90;;;;;;5029751;28;20196;-79
2022/06/09 02:45:15;;;;;;;0.20;0.20;;;13.60;99.90;;;;;;5032240;28;20271;-79
2022/06/09 02:47:41;;;;;;;0.77;0.47;;;13.70;99.90;;;;;;5031873;28;20642;-79
2022/06/09 02:50:07;;;;;;;0.33;0.33;;;13.70;99.90;;;;;;5031328;28;20225;-80
2022/06/09 02:52:33;;;;;;;0.10;0.10;;;13.70;99.90;;;;;;5031185;28;20210;-79
2022/06/09 02:54:59;;;;;;;0.10;0.10;;;13.80;99.90;;;;;;5032270;28;20182;-79
2022/06/09 02:57:25;;;;;;;0.20;0.20;;;13.90;99.90;;;;;;5030941;28;20630;-79
2022/06/09 02:59:51;;;;;;;0.10;0.10;;;14.00;99.90;;;;;;5032571;28;20198;-79
2022/06/09 03:02:20;;;;;;;0.10;0.10;;;14.00;99.90;;;;;;5032023;28;20214;-79
2022/06/09 03:04:46;;;;;;;0.57;0.57;;;14.00;99.90;;;;;;5032134;28;20197;-80
2022/06/09 03:07:13;;;;;;;0.10;0.10;;;14.10;99.90;;;;;;5032289;28;20813;-79
2022/06/09 03:09:39;;;;;;;0.50;0.40;;;14.10;99.90;;;;;;5032206;28;20223;-79
2022/06/09 03:12:05;;;;;;;0.20;0.20;;;14.10;99.90;;;;;;5032720;28;20574;-79
2022/06/09 03:14:31;;;;;;;0.20;0.20;;;14.10;99.90;;;;;;5032823;28;20193;-79
2022/06/09 03:16:56;;;;;;;0.10;0.10;;;14.10;99.90;;;;;;5031798;28;20241;-79
2022/06/09 03:19:22;;;;;;;0.30;0.30;;;14.10;99.90;;;;;;5034004;28;20213;-79
2022/06/09 03:21:48;;;;;;;0.13;0.13;;;14.10;99.90;;;;;;5033334;28;20190;-80
2022/06/09 03:24:14;;;;;;;0.23;0.23;;;14.10;99.90;;;;;;5035387;28;20193;-79
2022/06/09 03:26:39;;;;;;;0.83;0.83;;;14.10;99.90;;;;;;5035506;28;20206;-79
2022/06/09 03:29:05;;;;;;;0.30;0.30;;;14.20;99.90;;;;;;5034535;28;20233;-80
2022/06/09 03:31:30;;;;;;;0.10;0.10;;;14.20;99.90;;;;;;5034767;28;20203;-79
2022/06/09 03:33:56;;;;;;;0.20;0.20;;;14.20;99.90;;;;;;5031838;28;20191;-79
2022/06/09 03:36:22;;;;;;;0.10;0.10;;;14.30;99.90;;;;;;5035915;28;20199;-79
2022/06/09 03:38:47;;;;;;;0.20;0.20;;;14.30;99.90;;;;;;5036191;28;20194;-79
2022/06/09 03:41:13;;;;;;;0.10;0.10;;;14.40;99.90;;;;;;5036224;28;20201;-79
2022/06/09 03:43:38;;;;;;;0.10;0.10;;;14.70;99.90;;;;;;5035312;28;20187;-80
2022/06/09 03:46:04;;;;;;;0.83;0.20;;;14.80;99.90;;;;;;5034351;28;20210;-79
2022/06/09 03:48:30;;;;;;;0.20;0.20;;;15.10;99.90;;;;;;5036733;28;20184;-79
2022/06/09 03:50:56;;;;;;;0.10;0.10;;;14.80;99.90;;;;;;5033681;28;20655;-79
2022/06/09 03:53:21;;;;;;;0.17;0.17;;;14.70;99.90;;;;;;5034477;28;20213;-79
2022/06/09 03:55:47;;;;;;;0.10;0.10;;;15.20;99.90;;;;;;5034828;28;21242;-79
2022/06/09 03:58:13;;;;;;;0.20;0.20;;;16.10;99.90;;;;;;5033129;28;20234;-79
2022/06/09 04:00:39;;;;;;;0.10;0.10;;;17.10;99.90;;;;;;5033128;28;20189;-79
2022/06/09 04:03:05;;;;;;;0.17;0.17;;;18.00;99.90;;;;;;5033568;28;20276;-79
2022/06/09 04:05:31;;;;;;;0.10;0.10;;;18.90;99.90;;;;;;5032084;28;20732;-79
2022/06/09 04:08:01;;;;;;;0.20;0.20;;;19.50;99.90;;;;;;5031343;28;20223;-80
2022/06/09 04:10:31;;;;;;;0.10;0.10;;;20.20;99.90;;;;;;5033626;28;20555;-80
2022/06/09 04:12:57;;;;;;;0.27;0.27;;;19.10;99.90;;;;;;5033265;28;20204;-79
2022/06/09 04:15:23;;;;;;;0.20;0.20;;;18.40;99.90;;;;;;5034216;28;20538;-79
2022/06/09 04:17:51;;;;;;;0.40;0.40;;;19.50;99.90;;;;;;5035930;28;20181;-79
2022/06/09 04:20:19;;;;;;;0.20;0.20;;;20.20;99.90;;;;;;5033040;28;20557;-79
2022/06/09 04:22:44;;;;;;;1.10;0.37;;;20.30;99.90;;;;;;5032535;28;20188;-79
2022/06/09 04:25:10;;;;;;;0.50;0.50;;;19.70;99.90;;;;;;5033925;28;20681;-80
2022/06/09 04:27:36;;;;;;;0.23;0.23;;;19.00;99.90;;;;;;5033967;28;20185;-79
2022/06/09 04:30:02;;;;;;;0.10;0.10;;;18.40;99.90;;;;;;5034461;28;20246;-79
2022/06/09 04:32:28;;;;;;;0.57;0.50;;;18.10;99.90;;;;;;5033451;28;20202;-79
2022/06/09 04:34:53;;;;;;;0.87;0.50;;;17.80;99.90;;;;;;5033224;28;20705;-79
2022/06/09 04:37:19;;;;;;;1.30;0.47;;;17.70;99.90;;;;;;5033555;28;20206;-79
2022/06/09 04:39:44;;;;;;;0.40;0.40;;;17.60;99.90;;;;;;5034690;28;20213;-80
2022/06/09 04:42:10;;;;;;;0.20;0.20;;;17.60;99.90;;;;;;5032092;28;20193;-79
2022/06/09 04:44:36;;;;;;;0.33;0.33;;;17.40;99.90;;;;;;5031791;28;20186;-79
2022/06/09 04:47:01;;;;;;;0.20;0.20;;;17.40;99.90;;;;;;5033749;28;20637;-79
2022/06/09 04:49:27;;;;;;;0.20;0.20;;;17.30;99.90;;;;;;5034823;28;20181;-80
2022/06/09 04:51:52;;;;;;;0.93;0.20;;;17.10;99.90;;;;;;5033134;28;20426;-79
2022/06/09 04:54:18;;;;;;;0.20;0.20;;;17.10;99.90;;;;;;5033532;28;20518;-80
2022/06/09 04:56:44;;;;;;;0.10;0.10;;;16.90;99.90;;;;;;5032416;28;20213;-79
2022/06/09 04:59:09;;;;;;;0.30;0.30;;;16.80;99.90;;;;;;5033319;28;20260;-80
2022/06/09 05:01:35;;;;;;;0.20;0.20;;;16.70;99.90;;;;;;5034139;28;20192;-79
2022/06/09 05:04:01;;;;;;;0.30;0.30;;;16.50;99.90;;;;;;5031886;28;20239;-80
2022/06/09 05:06:28;;;;;;;1.17;0.40;;;16.40;99.90;;;;;;5033888;28;20231;-79
2022/06/09 05:08:55;;;;;;;0.37;0.30;;;16.40;99.90;;;;;;5032823;28;20254;-80
2022/06/09 05:11:22;;;;;;;0.10;0.10;;;16.30;99.90;;;;;;5033178;28;20186;-79
2022/06/09 05:13:48;;;;;;;0.77;0.40;;;16.30;99.90;;;;;;5031882;28;20193;-79
2022/06/09 05:16:15;;;;;;;0.33;0.20;;;16.30;99.90;;;;;;5031860;28;20201;-79
2022/06/09 05:18:40;;;;;;;0.20;0.20;;;16.20;99.90;;;;;;5033081;28;20185;-79
2022/06/09 05:21:07;;;;;;;0.10;0.10;;;16.20;99.90;;;;;;5032401;28;20171;-79
2022/06/09 05:23:33;;;;;;;0.10;0.10;;;16.20;99.90;;;;;;5033614;28;20213;-80
2022/06/09 05:26:00;;;;;;;0.27;0.27;;;16.30;99.90;;;;;;5034773;28;20215;-79
2022/06/09 05:28:27;;;;;;;0.40;0.40;;;16.20;99.90;;;;;;5032908;28;20204;-80
2022/06/09 05:30:53;;;;;;;0.20;0.20;;;16.00;99.90;;;;;;5032306;28;20200;-80
2022/06/09 05:33:20;;;;;;;0.10;0.10;;;16.20;99.90;;;;;;5033556;28;20686;-80
2022/06/09 05:35:45;;;;;;;0.20;0.20;;;16.30;99.90;;;;;;5033093;28;20228;-79
2022/06/09 05:46:26;;;;;;;0.37;0.37;;;17.10;99.90;;;;;;5033627;28;20216;-79
2022/06/09 05:48:51;;;;;;;0.33;0.33;;;17.40;99.90;;;;;;5034595;28;20199;-80
2022/06/09 05:51:17;;;;;;;0.53;0.53;;;17.60;99.90;;;;;;5031813;28;20205;-80
2022/06/09 05:53:44;;;;;;;0.10;0.10;;;17.70;99.90;;;;;;5031565;28;20332;-79
2022/06/09 05:56:10;;;;;;;0.30;0.30;;;17.70;99.90;;;;;;5033033;28;20608;-79
2022/06/09 05:58:36;;;;;;;0.20;0.20;;;17.80;99.90;;;;;;5034720;28;20662;-79
2022/06/09 06:01:05;;;;;;;0.40;0.40;;;17.80;99.90;;;;;;5033543;28;20185;-79
2022/06/09 06:03:31;;;;;;;0.73;0.67;;;17.80;99.90;;;;;;5034718;28;20181;-79
2022/06/09 06:08:41;;;;;;;0.20;0.20;;;17.80;99.90;;;;;;5034772;28;20235;-80
2022/06/09 06:11:07;;;;;;;0.43;0.33;;;17.90;99.90;;;;;;5031551;28;20186;-79
2022/06/09 06:13:32;;;;;;;0.17;0.13;;;17.90;99.90;;;;;;5032570;28;20183;-79
2022/06/09 06:15:58;;;;;;;0.30;0.30;;;18.10;99.90;;;;;;5034358;28;20264;-80
2022/06/09 06:18:24;;;;;;;0.10;0.10;;;18.00;99.90;;;;;;5031769;28;20185;-80
2022/06/09 06:20:50;;;;;;;0.23;0.23;;;18.10;99.90;;;;;;5031196;28;20636;-80
2022/06/09 06:23:16;;;;;;;0.73;0.50;;;18.00;99.90;;;;;;5032327;28;20178;-79
2022/06/09 06:25:42;;;;;;;0.30;0.30;;;17.80;99.90;;;;;;5033033;28;20491;-79
2022/06/09 06:28:07;;;;;;;2.53;0.33;;;17.70;99.90;;;;;;5033137;28;20261;-80
2022/06/09 06:30:33;;;;;;;0.10;0.10;;;17.60;99.90;;;;;;5030864;28;20181;-79
2022/06/09 06:32:59;;;;;;;0.33;0.33;;;17.70;99.90;;;;;;5030070;28;20204;-80
2022/06/09 06:35:24;;;;;;;0.20;0.20;;;18.20;99.90;;;;;;5031772;28;20257;-79
2022/06/09 06:37:50;;;;;;;0.20;0.20;;;18.70;99.90;;;;;;5032506;28;20185;-79
2022/06/09 06:40:16;;;;;;;0.40;0.40;;;18.80;99.90;;;;;;5032830;28;20174;-80
2022/06/09 06:42:41;;;;;;;0.80;0.40;;;18.90;99.90;;;;;;5031179;28;20181;-79
2022/06/09 06:45:09;;;;;;;1.80;0.60;;;18.80;99.90;;;;;;5031670;28;20178;-80
2022/06/09 06:47:35;;;;;;;0.20;0.20;;;18.60;99.90;;;;;;5032795;28;20273;-80
2022/06/09 06:50:01;;;;;;;0.27;0.27;;;18.40;99.90;;;;;;5031005;28;20281;-80
2022/06/09 06:52:26;;;;;;;0.10;0.10;;;18.40;99.90;;;;;;5033665;28;20682;-80
2022/06/09 06:54:52;;;;;;;0.37;0.37;;;18.50;99.90;;;;;;5031059;28;20286;-79
2022/06/09 06:57:17;;;;;;;0.20;0.20;;;18.50;99.90;;;;;;5036865;28;20247;-80
2022/06/09 06:59:43;;;;;;;0.43;0.43;;;18.60;99.90;;;;;;5036216;28;20178;-80
2022/06/09 07:02:12;;;;;;;0.57;0.47;;;18.50;99.90;;;;;;5035993;28;20726;-79
2022/06/09 07:04:38;;;;;;;0.63;0.63;;;18.50;99.90;;;;;;5034225;28;20185;-80
2022/06/09 07:07:04;;;;;;;0.30;0.30;;;18.60;99.90;;;;;;5036432;28;20263;-80
2022/06/09 07:09:30;;;;;;;0.10;0.10;;;18.50;99.90;;;;;;5037266;28;20659;-80
2022/06/09 07:11:55;;;;;;;1.03;0.50;;;18.40;99.90;;;;;;5035784;28;20209;-80
2022/06/09 07:14:21;;;;;;;0.23;0.20;;;18.30;99.90;;;;;;5034716;28;20185;-79
2022/06/09 07:16:47;;;;;;;0.20;0.20;;;18.10;99.90;;;;;;5036031;28;21030;-79
2022/06/09 07:19:14;;;;;;;0.20;0.20;;;18.20;99.90;;;;;;5036641;28;20196;-80
2022/06/09 07:21:39;;;;;;;0.20;0.20;;;18.40;99.90;;;;;;5036443;28;21036;-80
2022/06/09 07:24:05;;;;;;;1.60;0.30;;;18.50;99.90;;;;;;5036351;28;20177;-79
2022/06/09 07:26:31;;;;;;;0.10;0.10;;;18.50;99.90;;;;;;5036660;28;20225;-79
2022/06/09 07:28:56;;;;;;;0.10;0.10;;;18.60;99.90;;;;;;5035575;28;20559;-80
2022/06/09 07:31:22;;;;;;;0.63;0.63;;;18.40;99.90;;;;;;5035173;28;20209;-79
2022/06/09 07:33:47;;;;;;;0.20;0.20;;;18.30;99.90;;;;;;5036589;28;20679;-80
2022/06/09 07:36:19;;;;;;;0.20;0.20;;;18.20;99.90;;;;;;5034808;28;20277;-80
2022/06/09 07:38:45;;;;;;;0.20;0.20;;;18.00;99.90;;;;;;5034128;28;20274;-79
2022/06/09 07:41:10;;;;;;;0.30;0.30;;;18.00;99.90;;;;;;5036080;28;20284;-80
2022/06/09 07:43:36;;;;;;;0.20;0.20;;;17.90;99.90;;;;;;5035292;28;20277;-79
2022/06/09 07:46:02;;;;;;;1.40;0.63;;;17.90;99.90;;;;;;5034774;28;20217;-79
2022/06/09 07:48:28;;;;;;;0.67;0.67;;;18.00;99.90;;;;;;5034943;28;20192;-79
2022/06/09 07:50:54;;;;;;;0.20;0.20;;;17.90;99.90;;;;;;5034871;28;20190;-79
2022/06/09 07:53:21;;;;;;;0.40;0.40;;;17.80;99.90;;;;;;5034450;28;20793;-80
2022/06/09 07:55:48;;;;;;;0.67;0.47;;;17.90;99.90;;;;;;5035206;28;20220;-79
2022/06/09 07:58:15;;;;;;;0.20;0.20;;;17.90;99.90;;;;;;5035545;28;20178;-80
2022/06/09 08:00:41;;;;;;;0.33;0.33;;;18.00;99.90;;;;;;5036284;28;20724;-80
2022/06/09 08:03:07;;;;;;;0.37;0.27;;;18.10;99.90;;;;;;5035265;28;20186;-80
2022/06/09 08:05:34;;;;;;;0.17;0.17;;;18.40;99.90;;;;;;5032621;28;20228;-80
2022/06/09 08:08:00;;;;;;;0.20;0.20;;;18.40;99.90;;;;;;5033090;28;20197;-80
2022/06/09 08:10:28;;;;;;;0.10;0.10;;;18.40;99.90;;;;;;5035136;28;20186;-80
2022/06/09 08:12:57;;;;;;;3.07;0.63;;;18.30;99.90;;;;;;5034102;28;20233;-80
2022/06/09 08:15:24;;;;;;;0.23;0.23;;;18.30;99.90;;;;;;5035283;28;20196;-80
2022/06/09 08:17:51;;;;;;;0.20;0.20;;;18.40;99.90;;;;;;5035518;28;20253;-80
2022/06/09 08:20:17;;;;;;;0.20;0.20;;;18.40;99.90;;;;;;5034528;28;20190;-79
2022/06/09 08:22:43;;;;;;;0.17;0.17;;;18.40;99.90;;;;;;5033894;28;20192;-80
2022/06/09 08:25:15;;;;;;;0.27;0.27;;;18.50;99.90;;;;;;5035037;28;20186;-79
2022/06/09 08:27:42;;;;;;;0.20;0.20;;;18.60;99.90;;;;;;5036665;28;20253;-80
2022/06/09 08:30:10;;;;;;;0.30;0.30;;;18.70;99.90;;;;;;5036930;28;20203;-80
2022/06/09 08:32:36;;;;;;;0.97;0.60;;;18.80;99.90;;;;;;5035242;28;20276;-80
2022/06/09 08:35:03;;;;;;;0.43;0.43;;;18.90;99.90;;;;;;5035059;28;20617;-80
2022/06/09 08:37:28;;;;;;;0.30;0.30;;;18.80;99.90;;;;;;5035495;28;20197;-79
2022/06/09 08:39:54;;;;;;;0.30;0.30;;;18.80;99.90;;;;;;5035059;28;20190;-80
2022/06/09 08:42:36;;;;;;;0.23;0.23;;;18.80;99.90;;;;;;5036972;28;20196;-79
2022/06/09 08:45:08;;;;;;;10.13;9.70;;;18.70;99.90;;;;;;5033916;28;20205;-79
2022/06/09 08:47:51;;;;;;;0.27;0.27;;;18.60;99.90;;;;;;5032162;28;20305;-79
2022/06/09 08:50:32;;;;;;;0.10;0.10;;;18.70;99.90;;;;;;5033177;28;20189;-80
2022/06/09 08:53:14;;;;;;;0.30;0.30;;;18.70;99.90;;;;;;5030682;28;20209;-80
2022/06/09 08:55:53;;;;;;;0.23;0.23;;;18.80;99.90;;;;;;5035182;28;20199;-79
2022/06/09 08:58:28;;;;;;;0.50;0.50;;;18.80;99.90;;;;;;5033747;28;20181;-80
2022/06/09 09:01:17;;;;;;;3.27;0.53;;;18.70;99.90;;;;;;5033413;28;20185;-79
2022/06/09 09:03:49;;;;;;;0.20;0.20;;;18.70;99.90;;;;;;5032573;28;20193;-79
2022/06/09 09:06:15;;;;;;;6.60;0.50;;;18.60;99.90;;;;;;5033384;28;20244;-80
2022/06/09 09:08:40;;;;;;;0.23;0.23;;;18.80;99.90;;;;;;5033218;28;20632;-80
2022/06/09 09:11:05;;;;;;;0.30;0.30;;;18.80;99.90;;;;;;5034640;28;20182;-80
2022/06/09 09:13:47;;;;;;;2.10;1.97;;;19.00;99.90;;;;;;5035811;28;20603;-79
2022/06/09 09:16:21;;;;;;;0.10;0.10;;;19.20;99.90;;;;;;5036754;28;20217;-79
2022/06/09 09:19:03;;;;;;;1.60;0.37;;;19.20;99.90;;;;;;5036221;28;20208;-80
2022/06/09 09:21:53;;;;;;;0.10;0.10;;;19.50;99.90;;;;;;5035520;28;20170;-80
2022/06/09 09:24:47;;;;;;;0.20;0.20;;;19.60;99.90;;;;;;5034478;28;20719;-80
2022/06/09 09:27:27;;;;;;;0.60;0.60;;;19.30;99.90;;;;;;5050144;28;20276;-79
2022/06/09 09:30:04;;;;;;;0.20;0.20;;;19.20;99.90;;;;;;5033456;28;20176;-79
2022/06/09 09:32:40;;;;;;;0.20;0.20;;;19.00;99.90;;;;;;5035735;28;20247;-79
2022/06/09 09:35:12;;;;;;;0.23;0.20;;;19.10;99.90;;;;;;5036045;28;20177;-79
2022/06/09 09:37:46;;;;;;;0.20;0.20;;;19.10;99.90;;;;;;5032703;28;20184;-80
2022/06/09 09:40:11;;;;;;;0.23;0.23;;;19.00;99.90;;;;;;5034171;28;20666;-80
2022/06/09 09:42:42;;;;;;;0.20;0.20;;;19.10;99.90;;;;;;5034353;28;20221;-80
2022/06/09 09:45:10;;;;;;;0.20;0.20;;;19.10;99.90;;;;;;5036219;28;20669;-80
2022/06/09 09:47:54;;;;;;;0.60;0.50;;;19.00;99.90;;;;;;5032277;28;20190;-79
2022/06/09 09:50:29;;;;;;;0.30;0.30;;;18.80;99.90;;;;;;5033974;28;20523;-79
2022/06/09 09:53:20;;;;;;;1.50;0.63;;;18.60;99.90;;;;;;5033648;28;20232;-80
2022/06/09 09:56:13;;;;;;;0.47;0.47;;;18.60;99.90;;;;;;5026022;28;20209;-79
2022/06/09 09:58:58;;;;;;;0.30;0.30;;;18.60;99.90;;;;;;5017987;28;20186;-80
2022/06/09 10:01:24;;;;;;;0.13;0.13;;;18.60;99.90;;;;;;5034428;28;20185;-80
2022/06/09 10:10:08;;;;;;;0.10;0.10;;;18.80;99.90;;;;;;5033754;28;20936;-80
2022/06/09 10:12:35;;;;;;;1.03;0.50;;;18.90;99.90;;;;;;5035320;28;20205;-79
2022/06/09 10:15:17;;;;;;;0.80;0.80;;;18.80;99.90;;;;;;5032126;28;20178;-79
2022/06/09 10:18:02;;;;;;;0.40;0.40;;;18.70;99.90;;;;;;5031652;28;20204;-80
2022/06/09 10:20:44;;;;;;;0.57;0.57;;;18.90;99.90;;;;;;5032292;28;20189;-80
2022/06/09 10:23:09;;;;;;;0.67;0.60;;;19.00;99.90;;;;;;5031293;28;20206;-80
2022/06/09 10:25:59;;;;;;;0.27;0.27;;;19.10;99.90;;;;;;5033496;28;20711;-80
2022/06/09 10:28:44;;;;;;;0.40;0.40;;;19.40;99.90;;;;;;5034712;28;20186;-80
2022/06/09 10:31:45;;;;;;;0.73;0.40;;;19.60;99.90;;;;;;5035633;28;20260;-80
2022/06/09 10:34:19;;;;;;;0.67;0.53;;;19.70;99.90;;;;;;5036687;28;20886;-80
2022/06/09 10:37:02;;;;;;;4.23;0.87;;;20.00;99.90;;;;;;5035705;28;20706;-79
2022/06/09 10:39:59;;;;;;;0.20;0.20;;;20.10;99.90;;;;;;5035568;28;20315;-79
2022/06/09 10:42:39;;;;;;;0.37;0.37;;;20.00;99.90;;;;;;5037012;28;20297;-79
2022/06/09 10:45:41;;;;;;;0.20;0.20;;;19.90;99.90;;;;;;5036631;28;20674;-79
2022/06/09 10:57:20;;;;;;;0.20;0.20;;;20.10;99.90;;;;;;5039061;28;20217;-80
2022/06/09 11:00:08;;;;;;;0.67;0.67;;;20.00;99.90;;;;;;5035225;28;20471;-80
2022/06/09 11:02:34;;;;;;;0.50;0.50;;;20.10;99.90;;;;;;5033572;28;20282;-80
2022/06/09 11:05:01;;;;;;;0.20;0.20;;;20.30;99.90;;;;;;5036116;28;20697;-80
2022/06/09 11:07:59;;;;;;;0.20;0.20;;;20.30;99.90;;;;;;5036472;28;20197;-80
2022/06/09 11:10:28;;;;;;;0.37;0.37;;;20.20;99.90;;;;;;5037336;28;20269;-80
2022/06/09 11:13:25;;;;;;;0.20;0.20;;;20.20;99.90;;;;;;5038835;28;20206;-80
2022/06/09 11:16:07;;;;;;;0.20;0.20;;;20.20;99.90;;;;;;5034483;28;20226;-80
2022/06/09 11:19:02;;;;;;;0.20;0.20;;;20.30;99.90;;;;;;5035683;28;20217;-80
2022/06/09 11:21:45;;;;;;;1.23;0.40;;;20.20;99.90;;;;;;5036667;28;20182;-80
2022/06/09 11:24:16;;;;;;;0.20;0.20;;;20.40;99.90;;;;;;5034392;28;20236;-79
2022/06/09 11:26:52;;;;;;;1.07;1.07;;;20.80;99.90;;;;;;5037001;28;20201;-80
2022/06/09 11:29:45;;;;;;;0.37;0.37;;;21.30;99.90;;;;;;5035778;28;20224;-80
2022/06/09 11:32:33;;;;;;;2.17;0.60;;;21.60;99.90;;;;;;5035944;28;20201;-79
2022/06/09 11:35:17;;;;;;;0.43;0.43;;;21.40;99.90;;;;;;5036193;28;20183;-80
2022/06/09 11:38:11;;;;;;;0.37;0.37;;;21.40;99.90;;;;;;5036716;28;20209;-80
2022/06/09 11:40:48;;;;;;;0.30;0.30;;;21.80;99.90;;;;;;5035977;28;20221;-80
2022/06/09 11:43:19;;;;;;;0.30;0.30;;;21.90;99.90;;;;;;5034750;28;20174;-80
2022/06/09 11:45:53;;;;;;;0.67;0.50;;;21.80;99.90;;;;;;5037700;28;20218;-80
2022/06/09 11:48:28;;;;;;;0.20;0.20;;;21.80;99.90;;;;;;5035754;28;20244;-80
2022/06/09 11:50:55;;;;;;;0.40;0.30;;;21.90;99.90;;;;;;5034563;28;20216;-80
2022/06/09 11:53:24;;;;;;;0.50;0.50;;;21.90;99.90;;;;;;5035458;28;20253;-80
2022/06/09 11:56:11;;;;;;;0.43;0.43;;;21.70;99.90;;;;;;5034489;28;20301;-80
2022/06/09 11:58:36;;;;;;;0.20;0.20;;;21.40;99.90;;;;;;5033799;28;20225;-80
2022/06/09 12:01:08;;;;;;;0.20;0.20;;;21.40;99.90;;;;;;5032570;28;20217;-80
2022/06/09 12:04:04;;;;;;;0.83;0.60;;;21.30;99.90;;;;;;5037184;28;20545;-80
2022/06/09 12:06:47;;;;;;;1.27;0.47;;;21.00;99.90;;;;;;5033240;28;20524;-80
2022/06/09 12:09:34;;;;;;;0.40;0.20;;;20.90;99.90;;;;;;5033446;28;20251;-80
2022/06/09 12:12:24;;;;;;;0.20;0.20;;;20.80;99.90;;;;;;5036519;28;20217;-80
2022/06/09 12:15:27;;;;;;;0.20;0.20;;;20.70;99.90;;;;;;5043232;28;20681;-80
2022/06/09 12:17:55;;;;;;;1.50;0.40;;;20.50;99.90;;;;;;5058775;28;20655;-80
2022/06/09 12:20:26;;;;;;;0.10;0.10;;;20.30;99.90;;;;;;5041184;28;20178;-80
2022/06/09 12:23:20;;;;;;;0.80;0.33;;;20.40;99.90;;;;;;5043700;28;20201;-80
2022/06/09 12:26:09;;;;;;;0.20;0.20;;;20.20;99.90;;;;;;5039689;28;20210;-80
2022/06/09 12:28:49;;;;;;;0.20;0.20;;;20.10;99.90;;;;;;5039329;28;20244;-79
2022/06/09 12:31:18;;;;;;;0.33;0.30;;;20.20;99.90;;;;;;5039648;28;20232;-80
2022/06/09 12:34:04;;;;;;;0.20;0.20;;;20.20;99.90;;;;;;5041005;28;20219;-80
2022/06/09 12:36:41;;;;;;;0.20;0.20;;;20.40;99.90;;;;;;5038336;28;20512;-79
2022/06/09 12:39:23;;;;;;;0.10;0.10;;;20.40;99.90;;;;;;5039455;28;20189;-79
2022/06/09 12:41:57;;;;;;;0.17;0.17;;;20.50;99.90;;;;;;5042350;28;20501;-79
2022/06/09 12:44:23;;;;;;;0.30;0.30;;;20.60;99.90;;;;;;5039456;28;20220;-80
2022/06/09 12:47:17;;;;;;;0.20;0.20;;;20.80;99.90;;;;;;5039053;28;20238;-80
2022/06/09 12:49:48;;;;;;;0.63;0.37;;;21.20;99.90;;;;;;5039704;28;20186;-79
2022/06/09 12:52:35;;;;;;;0.20;0.20;;;21.10;99.90;;;;;;5023604;28;20194;-80
2022/06/09 12:55:23;;;;;;;1.50;0.60;;;21.50;99.90;;;;;;5039707;28;20186;-80
2022/06/09 12:58:15;;;;;;;0.30;0.30;;;21.60;99.90;;;;;;5039594;28;20217;-79
2022/06/09 13:00:49;;;;;;;0.53;0.30;;;21.70;99.90;;;;;;5039748;28;20186;-80
2022/06/09 13:03:34;;;;;;;0.20;0.20;;;21.90;99.90;;;;;;5041890;28;20174;-80
2022/06/09 13:06:21;;;;;;;0.57;0.57;;;22.10;99.90;;;;;;5041788;28;20304;-80
2022/06/09 13:08:50;;;;;;;0.80;0.40;;;21.90;99.90;;;;;;5040102;28;20186;-80
2022/06/09 13:14:12;;;;;;;0.30;0.30;;;21.80;99.90;;;;;;5039545;28;20224;-79
2022/06/09 13:16:44;;;;;;;0.20;0.20;;;21.90;99.90;;;;;;5038573;28;20202;-80
2022/06/09 13:19:11;;;;;;;0.20;0.20;;;22.10;99.90;;;;;;5037487;28;20167;-80
2022/06/09 13:21:39;;;;;;;0.30;0.30;;;22.40;99.90;;;;;;5036702;28;20546;-79
2022/06/09 13:24:16;;;;;;;0.10;0.10;;;22.70;99.90;;;;;;5036156;28;20187;-80
2022/06/09 13:26:44;;;;;;;0.30;0.30;;;22.80;99.90;;;;;;5033967;28;20324;-80
2022/06/09 13:29:18;;;;;;;0.40;0.30;;;22.90;99.90;;;;;;5038241;28;20175;-80
2022/06/09 13:31:45;;;;;;;0.10;0.10;;;22.80;99.90;;;;;;5040327;28;20173;-80
2022/06/09 13:34:14;;;;;;;0.13;0.13;;;21.80;99.90;;;;;;5038316;28;20171;-80
2022/06/09 13:36:54;;;;;;;0.60;0.60;;;21.40;99.90;;;;;;5036406;28;21105;-80
2022/06/09 13:39:32;;;;;;;0.13;0.13;;;21.30;99.90;;;;;;5036462;28;20197;-80